Terminal Aerodrome Forecast
Issued by NWS Tuscon, AZ

Home | Current Version | Previous Version | Text Only | Print | Product List | Glossary On
Versions: 1 2 3 4 5 6 7 8 9 10 11 12
705
FTUS45 KTWC 232320
TAFTUS
TAF
KTUS 232320Z 2400/2424 34006KT P6SM SKC
     FM240400 13008KT P6SM SKC
     FM241500 11022G32KT P6SM SKC
     FM242300 09012G18KT P6SM SKC=

USA.gov is the U.S. government's official web portal to all federal, state and local government web resources and services.